sensor_id;sensor_type;location;lat;lon;timestamp;P1;durP1;ratioP1;P2;durP2;ratioP2
77248;SDS011;66280;45.124;20.718;2023-08-17T00:09:34;23.60;;;17.00;;
77248;SDS011;66280;45.124;20.718;2023-08-17T00:19:35;19.17;;;15.93;;
77248;SDS011;66280;45.124;20.718;2023-08-17T00:29:35;20.30;;;15.37;;
77248;SDS011;66280;45.124;20.718;2023-08-17T00:39:36;22.08;;;15.88;;
77248;SDS011;66280;45.124;20.718;2023-08-17T00:49:37;22.07;;;15.83;;
77248;SDS011;66280;45.124;20.718;2023-08-17T00:59:39;20.80;;;15.80;;
77248;SDS011;66280;45.124;20.718;2023-08-17T01:09:39;19.43;;;16.13;;
77248;SDS011;66280;45.124;20.718;2023-08-17T01:19:40;22.73;;;15.33;;
77248;SDS011;66280;45.124;20.718;2023-08-17T01:29:41;24.10;;;16.73;;
77248;SDS011;66280;45.124;20.718;2023-08-17T01:39:42;20.53;;;14.90;;
77248;SDS011;66280;45.124;20.718;2023-08-17T01:49:44;20.45;;;15.50;;
77248;SDS011;66280;45.124;20.718;2023-08-17T01:59:45;20.50;;;15.40;;
77248;SDS011;66280;45.124;20.718;2023-08-17T02:09:46;23.53;;;16.97;;
77248;SDS011;66280;45.124;20.718;2023-08-17T02:19:46;19.53;;;15.63;;
77248;SDS011;66280;45.124;20.718;2023-08-17T02:29:48;24.53;;;17.20;;
77248;SDS011;66280;45.124;20.718;2023-08-17T02:39:49;27.05;;;17.55;;
77248;SDS011;66280;45.124;20.718;2023-08-17T02:49:49;28.40;;;16.45;;
77248;SDS011;66280;45.124;20.718;2023-08-17T02:59:50;21.80;;;14.90;;
77248;SDS011;66280;45.124;20.718;2023-08-17T03:09:51;19.80;;;13.70;;
77248;SDS011;66280;45.124;20.718;2023-08-17T03:19:52;20.25;;;16.33;;
77248;SDS011;66280;45.124;20.718;2023-08-17T03:29:53;23.63;;;16.07;;
77248;SDS011;66280;45.124;20.718;2023-08-17T03:39:54;22.60;;;17.03;;
77248;SDS011;66280;45.124;20.718;2023-08-17T03:49:55;22.60;;;16.37;;
77248;SDS011;66280;45.124;20.718;2023-08-17T03:59:55;21.57;;;17.30;;
77248;SDS011;66280;45.124;20.718;2023-08-17T04:10:00;22.83;;;17.60;;
77248;SDS011;66280;45.124;20.718;2023-08-17T04:20:01;27.53;;;17.70;;
77248;SDS011;66280;45.124;20.718;2023-08-17T04:30:01;22.05;;;16.92;;
77248;SDS011;66280;45.124;20.718;2023-08-17T04:40:09;22.73;;;18.03;;
77248;SDS011;66280;45.124;20.718;2023-08-17T04:50:11;24.60;;;18.40;;
77248;SDS011;66280;45.124;20.718;2023-08-17T05:00:13;23.43;;;19.17;;
77248;SDS011;66280;45.124;20.718;2023-08-17T05:10:14;22.77;;;17.50;;
77248;SDS011;66280;45.124;20.718;2023-08-17T05:20:16;27.90;;;18.30;;
77248;SDS011;66280;45.124;20.718;2023-08-17T05:30:17;33.70;;;18.43;;
77248;SDS011;66280;45.124;20.718;2023-08-17T05:40:18;61.92;;;19.65;;
77248;SDS011;66280;45.124;20.718;2023-08-17T05:50:19;25.93;;;17.00;;
77248;SDS011;66280;45.124;20.718;2023-08-17T06:00:20;25.93;;;17.00;;
77248;SDS011;66280;45.124;20.718;2023-08-17T06:10:20;21.15;;;17.45;;
77248;SDS011;66280;45.124;20.718;2023-08-17T06:20:21;21.23;;;16.97;;
77248;SDS011;66280;45.124;20.718;2023-08-17T06:30:21;19.45;;;17.05;;
77248;SDS011;66280;45.124;20.718;2023-08-17T06:40:22;19.33;;;16.53;;
77248;SDS011;66280;45.124;20.718;2023-08-17T06:50:23;21.10;;;16.13;;
77248;SDS011;66280;45.124;20.718;2023-08-17T07:00:24;20.43;;;15.80;;
77248;SDS011;66280;45.124;20.718;2023-08-17T07:10:25;19.97;;;15.87;;
77248;SDS011;66280;45.124;20.718;2023-08-17T07:20:27;17.25;;;15.35;;
77248;SDS011;66280;45.124;20.718;2023-08-17T07:30:27;19.13;;;15.50;;
77248;SDS011;66280;45.124;20.718;2023-08-17T07:40:28;16.93;;;15.23;;
77248;SDS011;66280;45.124;20.718;2023-08-17T07:50:29;18.23;;;15.93;;
77248;SDS011;66280;45.124;20.718;2023-08-17T08:00:29;17.02;;;15.32;;
77248;SDS011;66280;45.124;20.718;2023-08-17T08:10:30;16.50;;;14.77;;
77248;SDS011;66280;45.124;20.718;2023-08-17T08:20:31;16.33;;;14.63;;
77248;SDS011;66280;45.124;20.718;2023-08-17T08:30:31;17.57;;;14.53;;
77248;SDS011;66280;45.124;20.718;2023-08-17T08:40:32;15.20;;;13.60;;
77248;SDS011;66280;45.124;20.718;2023-08-17T08:50:33;13.27;;;12.07;;
77248;SDS011;66280;45.124;20.718;2023-08-17T09:00:36;14.40;;;13.10;;
77248;SDS011;66280;45.124;20.718;2023-08-17T09:10:37;15.50;;;13.90;;
77248;SDS011;66280;45.124;20.718;2023-08-17T09:20:40;15.40;;;14.03;;
77248;SDS011;66280;45.124;20.718;2023-08-17T09:30:51;14.97;;;13.53;;
77248;SDS011;66280;45.124;20.718;2023-08-17T09:40:53;14.67;;;13.37;;
77248;SDS011;66280;45.124;20.718;2023-08-17T09:50:56;16.37;;;15.07;;
77248;SDS011;66280;45.124;20.718;2023-08-17T17:01:36;13.25;;;10.52;;
77248;SDS011;66280;45.124;20.718;2023-08-17T21:01:50;16.87;;;15.17;;
77248;SDS011;66280;45.124;20.718;2023-08-17T21:11:51;16.57;;;12.43;;
77248;SDS011;66280;45.124;20.718;2023-08-17T21:21:51;14.63;;;12.93;;
77248;SDS011;66280;45.124;20.718;2023-08-17T21:31:52;14.50;;;12.80;;
77248;SDS011;66280;45.124;20.718;2023-08-17T21:51:53;12.00;;;10.90;;
77248;SDS011;66280;45.124;20.718;2023-08-17T22:01:53;13.23;;;11.93;;
77248;SDS011;66280;45.124;20.718;2023-08-17T22:11:54;16.58;;;14.82;;
77248;SDS011;66280;45.124;20.718;2023-08-17T22:21:56;20.70;;;13.60;;
77248;SDS011;66280;45.124;20.718;2023-08-17T22:31:59;18.97;;;14.63;;
77248;SDS011;66280;45.124;20.718;2023-08-17T22:42:00;17.20;;;15.35;;
77248;SDS011;66280;45.124;20.718;2023-08-17T22:52:00;26.23;;;16.83;;
77248;SDS011;66280;45.124;20.718;2023-08-17T23:02:01;18.83;;;16.92;;
77248;SDS011;66280;45.124;20.718;2023-08-17T23:12:05;20.02;;;18.00;;
77248;SDS011;66280;45.124;20.718;2023-08-17T23:22:06;21.37;;;18.87;;
77248;SDS011;66280;45.124;20.718;2023-08-17T23:32:06;22.73;;;19.73;;
77248;SDS011;66280;45.124;20.718;2023-08-17T23:42:07;21.10;;;18.90;;
77248;SDS011;66280;45.124;20.718;2023-08-17T23:52:08;21.07;;;17.77;;
